createdAt,value
2019-01-21T00:00:45.729Z,101903.47
2019-01-21T00:06:01.141Z,101901.59
2019-01-21T00:11:23.312Z,101899.30
2019-01-21T00:16:45.483Z,101891.85
2019-01-21T00:21:48.157Z,101889.75
2019-01-21T00:27:10.450Z,101887.41
2019-01-21T00:32:32.656Z,101893.13
2019-01-21T00:37:54.838Z,101897.70
2019-01-21T00:42:57.499Z,101888.13
2019-01-21T00:48:00.155Z,101882.78
2019-01-21T00:53:22.330Z,101887.69
2019-01-21T00:58:44.509Z,101880.29
2019-01-21T01:04:06.695Z,101914.72
2019-01-21T01:09:22.126Z,101884.55
2019-01-21T01:14:24.862Z,101889.30
2019-01-21T01:19:47.070Z,101889.84
2019-01-21T01:25:09.410Z,101894.11
2019-01-21T01:30:31.613Z,101460.67
2019-01-21T01:35:53.803Z,101904.41
2019-01-21T01:41:15.979Z,101890.89
2019-01-21T01:46:38.158Z,101898.86
2019-01-21T01:52:00.965Z,101907.76
2019-01-21T01:57:03.825Z,101713.63
2019-01-21T02:02:26.000Z,101907.80
2019-01-21T02:07:41.430Z,101527.68
2019-01-21T02:13:03.943Z,101916.08
2019-01-21T02:18:26.121Z,101956.28
2019-01-21T02:24:30.639Z,101916.31
2019-01-21T02:30:31.823Z,101930.90
2019-01-21T02:36:20.605Z,101717.63
2019-01-21T02:41:58.929Z,101914.09
2019-01-21T02:48:00.058Z,101912.60
2019-01-21T02:53:57.403Z,101904.61
2019-01-21T02:59:46.053Z,101884.08
2019-01-21T03:05:07.080Z,101783.19
2019-01-21T03:11:02.511Z,101885.83
2019-01-21T03:16:44.184Z,101895.43
2019-01-21T03:22:52.342Z,101888.27
2019-01-21T03:35:15.753Z,101886.11
2019-01-21T03:53:30.763Z,101869.75
2019-01-21T03:59:24.907Z,101868.23
2019-01-21T04:05:26.244Z,101876.09
2019-01-21T04:17:49.715Z,101876.86
2019-01-21T04:23:50.884Z,101877.19
2019-01-21T04:29:52.067Z,101888.42
2019-01-21T04:35:53.278Z,101863.42
2019-01-21T04:41:54.536Z,101859.23
2019-01-21T04:47:55.711Z,101538.79
2019-01-21T04:53:56.889Z,101860.05
2019-01-21T04:59:58.104Z,101852.59
2019-01-21T05:05:32.518Z,101867.30
2019-01-21T05:11:40.886Z,101829.14
2019-01-21T05:17:45.207Z,101525.54
2019-01-21T05:23:23.884Z,101847.50
2019-01-21T05:29:25.079Z,101497.01
2019-01-21T05:35:26.265Z,101840.50
2019-01-21T05:41:27.468Z,101791.06
2019-01-21T05:47:28.642Z,101821.33
2019-01-21T05:53:42.289Z,101334.99
2019-01-21T05:59:43.468Z,101802.74
2019-01-21T06:05:44.683Z,101650.41
2019-01-21T06:11:29.350Z,101854.02
2019-01-21T06:17:19.193Z,101846.05
2019-01-21T06:23:20.568Z,101861.57
2019-01-21T06:29:07.949Z,101839.22
2019-01-21T06:35:09.137Z,101855.42
2019-01-21T06:40:57.008Z,101869.06
2019-01-21T06:53:20.038Z,101474.47
2019-01-21T07:05:35.506Z,101858.91
2019-01-21T07:11:23.239Z,101867.87
2019-01-21T07:17:24.697Z,101579.28
2019-01-21T07:23:25.895Z,101879.16
2019-01-21T07:29:14.701Z,101872.92
2019-01-21T07:35:15.867Z,101876.48
2019-01-21T07:41:17.055Z,101869.36
2019-01-21T07:47:18.212Z,101878.31
2019-01-21T07:53:26.156Z,101889.28
2019-01-21T07:59:27.325Z,101873.60
2019-01-21T08:05:28.614Z,101883.95
2019-01-21T08:11:31.293Z,101868.25
2019-01-21T08:17:32.459Z,101874.37
2019-01-21T08:23:23.943Z,101889.75
2019-01-21T08:29:09.188Z,101902.09
2019-01-21T08:35:10.374Z,101932.73
2019-01-21T08:40:43.325Z,101472.09
2019-01-21T08:46:44.519Z,101889.43
2019-01-21T08:52:33.777Z,101879.50
2019-01-21T08:58:35.019Z,101875.13
2019-01-21T09:04:36.205Z,101899.94
2019-01-21T09:10:11.208Z,101872.10
2019-01-21T09:16:00.659Z,101897.30
2019-01-21T09:22:01.828Z,101886.53
2019-01-21T09:28:03.042Z,101896.33
2019-01-21T09:34:04.212Z,101822.74
2019-01-21T09:39:50.155Z,101873.84
2019-01-21T09:45:54.131Z,101864.55
2019-01-21T09:51:16.411Z,101891.34
2019-01-21T09:56:39.064Z,101874.19
2019-01-21T10:02:44.226Z,101867.31
2019-01-21T10:08:19.107Z,101876.86
2019-01-21T10:14:20.294Z,101872.71
2019-01-21T10:20:06.132Z,101869.05
2019-01-21T10:25:48.728Z,101747.94
2019-01-21T10:31:49.932Z,101858.28
2019-01-21T10:37:51.126Z,101674.00
2019-01-21T10:43:52.337Z,101842.02
2019-01-21T10:49:47.209Z,101830.34
2019-01-21T10:55:36.884Z,101666.75
2019-01-21T11:01:38.069Z,101811.89
2019-01-21T11:07:16.004Z,101812.73
2019-01-21T11:13:17.193Z,101695.06
2019-01-21T11:19:01.458Z,101796.91
2019-01-21T11:25:02.631Z,101797.34
2019-01-21T11:31:03.865Z,101791.61
2019-01-21T11:37:05.027Z,101797.05
2019-01-21T11:43:06.237Z,101787.13
2019-01-21T11:49:07.464Z,101768.63
2019-01-21T11:54:56.554Z,101765.81
2019-01-21T12:00:58.277Z,101755.83
2019-01-21T12:06:24.124Z,101739.63
2019-01-21T12:12:01.315Z,101471.94
2019-01-21T12:18:02.530Z,101739.41
2019-01-21T12:24:04.146Z,101738.32
2019-01-21T12:30:05.657Z,101744.72
2019-01-21T12:36:07.054Z,101716.98
2019-01-21T12:42:08.290Z,101621.14
2019-01-21T12:47:56.865Z,101472.34
2019-01-21T12:53:58.115Z,101581.53
2019-01-21T13:05:49.177Z,101679.46
2019-01-21T13:11:38.379Z,101671.02
2019-01-21T13:17:39.615Z,101663.29
2019-01-21T13:23:40.820Z,101654.21
2019-01-21T13:29:25.088Z,101661.64
2019-01-21T13:35:19.321Z,101645.77
2019-01-21T13:41:23.291Z,101244.30
2019-01-21T13:47:24.477Z,101268.64
2019-01-21T13:53:25.694Z,101504.11
2019-01-21T13:59:26.873Z,101624.47
2019-01-21T14:05:31.145Z,101349.05
2019-01-21T14:11:31.234Z,101631.09
2019-01-21T14:17:32.397Z,101624.13
2019-01-21T14:23:33.602Z,101654.77
2019-01-21T14:29:22.051Z,101643.06
2019-01-21T14:35:23.231Z,101604.05
2019-01-21T14:41:24.424Z,101596.99
2019-01-21T14:47:11.118Z,101588.70
2019-01-21T14:53:03.387Z,101602.85
2019-01-21T14:59:04.585Z,101571.70
2019-01-21T15:04:38.749Z,101590.55
2019-01-21T15:10:13.205Z,101559.79
2019-01-21T15:16:02.326Z,101281.03
2019-01-21T15:21:48.267Z,101552.67
2019-01-21T15:27:52.298Z,101553.88
2019-01-21T15:33:53.577Z,101552.84
2019-01-21T15:39:38.554Z,101160.73
2019-01-21T15:45:25.328Z,101284.72
2019-01-21T15:51:05.106Z,101573.35
2019-01-21T15:56:50.175Z,101546.02
2019-01-21T16:02:39.069Z,101550.61
2019-01-21T16:08:06.993Z,101565.03
2019-01-21T16:14:12.552Z,101556.33
2019-01-21T16:19:56.012Z,101559.22
2019-01-21T16:25:57.229Z,101554.41
2019-01-21T16:31:33.927Z,101572.75
2019-01-21T16:37:35.104Z,101212.05
2019-01-21T16:42:57.293Z,101227.68
2019-01-21T16:48:19.540Z,101535.17
2019-01-21T16:53:41.744Z,101533.81
2019-01-21T17:04:36.031Z,101573.23
2019-01-21T17:09:50.920Z,101395.23
2019-01-21T17:15:13.238Z,101390.09
2019-01-21T17:20:18.841Z,101529.53
2019-01-21T17:25:41.053Z,101514.43
2019-01-21T17:31:03.270Z,101507.87
2019-01-21T17:36:25.473Z,101494.72
2019-01-21T17:58:13.294Z,101461.70
2019-01-21T18:08:56.990Z,101514.20
2019-01-21T18:14:19.165Z,101448.94
2019-01-21T18:19:41.447Z,101240.70
2019-01-21T18:25:04.472Z,101487.84
2019-01-21T18:30:27.176Z,101495.92
2019-01-21T18:35:49.366Z,101169.30
2019-01-21T18:41:11.788Z,101472.48
2019-01-21T18:46:34.033Z,101500.98
2019-01-21T18:51:36.697Z,101504.89
2019-01-21T18:56:58.880Z,101466.95
2019-01-21T19:02:01.621Z,101167.53
2019-01-21T19:07:17.552Z,101473.66
2019-01-21T19:12:39.842Z,101500.03
2019-01-21T19:18:24.776Z,101489.72
2019-01-21T19:23:47.301Z,101477.30
2019-01-21T19:29:09.478Z,101083.66
2019-01-21T19:34:31.706Z,101466.05
2019-01-21T19:39:34.393Z,101451.31
2019-01-21T19:44:37.312Z,101452.38
2019-01-21T19:49:39.993Z,101451.08
2019-01-21T19:55:02.219Z,101455.86
2019-01-21T20:00:25.696Z,101446.81
2019-01-21T20:05:41.070Z,101476.55
2019-01-21T20:11:03.298Z,101096.03
2019-01-21T20:16:25.537Z,101437.02
2019-01-21T20:21:47.741Z,101450.41
2019-01-21T20:27:09.933Z,101143.21
2019-01-21T20:32:32.126Z,101175.54
2019-01-21T20:37:54.368Z,101423.83
2019-01-21T20:43:16.542Z,101426.84
2019-01-21T20:48:38.739Z,101420.84
2019-01-21T20:54:02.334Z,101417.81
2019-01-21T20:59:25.905Z,101142.02
2019-01-21T21:04:49.311Z,101404.53
2019-01-21T21:09:53.276Z,101409.36
2019-01-21T21:15:17.913Z,101409.30
2019-01-21T21:20:40.955Z,101403.34
2019-01-21T21:26:04.674Z,101406.37
2019-01-21T21:31:29.907Z,101397.75
2019-01-21T21:36:52.885Z,101399.52
2019-01-21T21:42:16.569Z,101407.72
2019-01-21T21:47:19.396Z,101108.11
2019-01-21T21:52:27.816Z,101380.95
2019-01-21T21:57:26.667Z,101372.34
2019-01-21T22:02:29.354Z,101365.05
2019-01-21T22:07:44.499Z,101368.94
2019-01-21T22:12:47.306Z,101359.89
2019-01-21T22:18:09.603Z,101354.75
2019-01-21T22:23:31.788Z,101353.03
2019-01-21T22:28:53.987Z,101002.89
2019-01-21T22:33:56.659Z,100941.05
2019-01-21T22:39:18.825Z,101336.05
2019-01-21T22:44:41.019Z,101337.02
2019-01-21T22:50:04.252Z,101331.00
2019-01-21T22:55:26.587Z,101350.05
2019-01-21T23:01:27.888Z,101317.33
2019-01-21T23:06:43.553Z,101060.89
2019-01-21T23:12:05.748Z,101303.92
2019-01-21T23:17:28.091Z,101298.76
2019-01-21T23:22:50.299Z,101320.81
2019-01-21T23:28:12.513Z,101315.17
2019-01-21T23:33:34.713Z,100886.19
2019-01-21T23:38:56.909Z,101306.99
2019-01-21T23:43:59.685Z,101169.42
2019-01-21T23:49:02.581Z,101270.27
2019-01-21T23:54:25.204Z,101271.63
2019-01-21T23:59:47.400Z,100960.92
